Aeroporto :
LOGIN :

Iscrizione | Disclaimer

   EN    FR    IT 

 










Sommario :    VFR   VFR Marginale   IFR   IFR Intensivo   IFR Molto Intensivo
Visibilità : 
Base nubi : 
>= 8 km
>= 3000ft
5 / 8 km
1000 / 3000 ft
1500m / 5 km
500 / 1000 ft
800 / 1500m
200 / 500 ft
< 800m
< 200 ft
Simboli :   Temporali  Nebbia  Neve Forte  Precipitazioni Forti  Vento > 20 kt
SIGMETs :   Varie  Temporali  Ghiacco  Turbolenza  Onda orograficha  Ceneri Vulcaniche






- Altitudine del aeroporto : 179 ft


LIPI - Rivolto AFB Udine

ULTIMO METAR :
  • 140555Z 35005KT CAVOK 05/03 Q1009

METARs OBSOLETI :
  • 140455Z 34006KT 9999 FEW040 06/04 Q1008 RMK SCT VIS MIN 9999 WIND THR06 02008KT WIND THR24 01006KT BLU
  • 140355Z 35005KT 9999 SCT040 SCT080 07/04 Q1008

TAF TAF LIPI
Valido dal 14 a 06 ore il 14 a 15 ore UTC


140500Z 1406/1415 35005KT 9999 FEW080
BECMG 1406/1409 SCT030 SCT060



MetMap, La meteo Aeronautica in un colpo d'occhio ! - Copyright ORBIFLY Dicembre 2007 - Disclaimer

ORBIFLY MET'MAP TEAM :

Programmazione e sviluppo : Alexandra Zaïnal
Concezione e sviluppo : Baudouin d'Aumeries
Co-Programmazione e sviluppo : Marc-Olivier Méhu
Supporto tecnico e logistico : Manuel Goepfert
Aiuto per la traduzione : Arnaldo La Scala

Contatto : metmap@orbifly.com




FONTI E CREDITI :

   NOAA